sensor_id;sensor_type;location;lat;lon;timestamp;P1;durP1;ratioP1;P2;durP2;ratioP2
25559;SDS011;13450;49.374;8.584;2023-12-20T00:00:57;13.13;;;3.80;;
25559;SDS011;13450;49.374;8.584;2023-12-20T00:03:22;8.40;;;3.50;;
25559;SDS011;13450;49.374;8.584;2023-12-20T00:05:48;9.48;;;3.50;;
25559;SDS011;13450;49.374;8.584;2023-12-20T00:08:14;10.63;;;4.13;;
25559;SDS011;13450;49.374;8.584;2023-12-20T00:10:39;10.02;;;3.65;;
25559;SDS011;13450;49.374;8.584;2023-12-20T00:13:05;7.43;;;2.92;;
25559;SDS011;13450;49.374;8.584;2023-12-20T00:15:32;7.43;;;2.83;;
25559;SDS011;13450;49.374;8.584;2023-12-20T00:17:57;7.63;;;3.42;;
25559;SDS011;13450;49.374;8.584;2023-12-20T00:20:22;8.95;;;3.60;;
25559;SDS011;13450;49.374;8.584;2023-12-20T00:22:47;7.63;;;3.05;;
25559;SDS011;13450;49.374;8.584;2023-12-20T00:25:13;8.93;;;3.50;;
25559;SDS011;13450;49.374;8.584;2023-12-20T00:27:40;8.20;;;3.20;;
25559;SDS011;13450;49.374;8.584;2023-12-20T00:30:06;7.45;;;2.92;;
25559;SDS011;13450;49.374;8.584;2023-12-20T00:32:32;9.75;;;3.58;;
25559;SDS011;13450;49.374;8.584;2023-12-20T00:35:00;7.45;;;3.38;;
25559;SDS011;13450;49.374;8.584;2023-12-20T00:37:25;9.05;;;3.22;;
25559;SDS011;13450;49.374;8.584;2023-12-20T00:39:50;7.57;;;3.25;;
25559;SDS011;13450;49.374;8.584;2023-12-20T00:42:16;6.93;;;2.83;;
25559;SDS011;13450;49.374;8.584;2023-12-20T00:44:41;6.03;;;2.50;;
25559;SDS011;13450;49.374;8.584;2023-12-20T00:47:06;7.88;;;3.00;;
25559;SDS011;13450;49.374;8.584;2023-12-20T00:49:34;6.85;;;2.88;;
25559;SDS011;13450;49.374;8.584;2023-12-20T00:51:59;7.03;;;2.80;;
25559;SDS011;13450;49.374;8.584;2023-12-20T00:54:24;5.55;;;2.70;;
25559;SDS011;13450;49.374;8.584;2023-12-20T00:56:50;6.93;;;2.50;;
25559;SDS011;13450;49.374;8.584;2023-12-20T00:59:16;7.68;;;3.08;;
25559;SDS011;13450;49.374;8.584;2023-12-20T01:01:42;6.65;;;2.83;;
25559;SDS011;13450;49.374;8.584;2023-12-20T01:04:07;6.75;;;2.47;;
25559;SDS011;13450;49.374;8.584;2023-12-20T01:06:32;6.85;;;2.80;;
25559;SDS011;13450;49.374;8.584;2023-12-20T01:08:58;7.13;;;2.72;;
25559;SDS011;13450;49.374;8.584;2023-12-20T01:11:23;6.20;;;2.65;;
25559;SDS011;13450;49.374;8.584;2023-12-20T01:13:48;5.82;;;2.70;;
25559;SDS011;13450;49.374;8.584;2023-12-20T01:16:14;5.75;;;2.40;;
25559;SDS011;13450;49.374;8.584;2023-12-20T01:18:39;5.90;;;2.60;;
25559;SDS011;13450;49.374;8.584;2023-12-20T01:21:07;6.53;;;2.42;;
25559;SDS011;13450;49.374;8.584;2023-12-20T01:23:32;5.00;;;2.55;;
25559;SDS011;13450;49.374;8.584;2023-12-20T01:25:58;6.38;;;2.55;;
25559;SDS011;13450;49.374;8.584;2023-12-20T01:30:52;6.75;;;2.70;;
25559;SDS011;13450;49.374;8.584;2023-12-20T01:33:18;6.47;;;2.72;;
25559;SDS011;13450;49.374;8.584;2023-12-20T01:35:43;9.68;;;3.65;;
25559;SDS011;13450;49.374;8.584;2023-12-20T01:38:08;7.70;;;3.30;;
25559;SDS011;13450;49.374;8.584;2023-12-20T01:40:34;6.65;;;2.95;;
25559;SDS011;13450;49.374;8.584;2023-12-20T01:43:01;8.27;;;3.33;;
25559;SDS011;13450;49.374;8.584;2023-12-20T01:45:27;7.85;;;3.05;;
25559;SDS011;13450;49.374;8.584;2023-12-20T01:47:54;9.23;;;3.40;;
25559;SDS011;13450;49.374;8.584;2023-12-20T01:50:23;8.70;;;3.03;;
25559;SDS011;13450;49.374;8.584;2023-12-20T01:52:48;7.97;;;3.40;;
25559;SDS011;13450;49.374;8.584;2023-12-20T01:55:17;7.35;;;3.20;;
25559;SDS011;13450;49.374;8.584;2023-12-20T01:57:43;7.63;;;3.10;;
25559;SDS011;13450;49.374;8.584;2023-12-20T02:00:09;8.90;;;3.42;;
25559;SDS011;13450;49.374;8.584;2023-12-20T02:02:36;8.52;;;3.25;;
25559;SDS011;13450;49.374;8.584;2023-12-20T02:05:05;7.07;;;2.95;;
25559;SDS011;13450;49.374;8.584;2023-12-20T02:07:31;7.57;;;2.92;;
25559;SDS011;13450;49.374;8.584;2023-12-20T02:09:56;6.60;;;3.08;;
25559;SDS011;13450;49.374;8.584;2023-12-20T02:12:22;6.80;;;3.00;;
25559;SDS011;13450;49.374;8.584;2023-12-20T02:14:48;5.93;;;2.58;;
25559;SDS011;13450;49.374;8.584;2023-12-20T02:17:13;6.80;;;2.70;;
25559;SDS011;13450;49.374;8.584;2023-12-20T02:19:39;6.80;;;2.70;;
25559;SDS011;13450;49.374;8.584;2023-12-20T02:22:07;6.80;;;2.60;;
25559;SDS011;13450;49.374;8.584;2023-12-20T02:24:33;7.70;;;3.10;;
25559;SDS011;13450;49.374;8.584;2023-12-20T02:26:58;8.00;;;2.92;;
25559;SDS011;13450;49.374;8.584;2023-12-20T02:29:23;9.00;;;2.72;;
25559;SDS011;13450;49.374;8.584;2023-12-20T02:31:49;6.32;;;2.67;;
25559;SDS011;13450;49.374;8.584;2023-12-20T02:34:14;6.82;;;2.80;;
25559;SDS011;13450;49.374;8.584;2023-12-20T02:36:39;7.07;;;2.72;;
25559;SDS011;13450;49.374;8.584;2023-12-20T02:39:05;7.05;;;2.47;;
25559;SDS011;13450;49.374;8.584;2023-12-20T02:41:30;6.95;;;2.80;;
25559;SDS011;13450;49.374;8.584;2023-12-20T02:43:55;6.80;;;2.40;;
25559;SDS011;13450;49.374;8.584;2023-12-20T02:46:23;5.30;;;2.20;;
25559;SDS011;13450;49.374;8.584;2023-12-20T02:48:48;6.28;;;2.28;;
25559;SDS011;13450;49.374;8.584;2023-12-20T02:51:13;5.85;;;2.20;;
25559;SDS011;13450;49.374;8.584;2023-12-20T02:53:41;7.32;;;2.70;;
25559;SDS011;13450;49.374;8.584;2023-12-20T02:56:06;5.35;;;2.40;;
25559;SDS011;13450;49.374;8.584;2023-12-20T02:58:31;6.85;;;2.80;;
25559;SDS011;13450;49.374;8.584;2023-12-20T03:00:59;5.32;;;2.40;;
25559;SDS011;13450;49.374;8.584;2023-12-20T03:03:24;6.00;;;2.22;;
25559;SDS011;13450;49.374;8.584;2023-12-20T03:05:50;5.03;;;1.92;;
25559;SDS011;13450;49.374;8.584;2023-12-20T03:08:15;6.53;;;2.60;;
25559;SDS011;13450;49.374;8.584;2023-12-20T03:10:44;6.28;;;2.30;;
25559;SDS011;13450;49.374;8.584;2023-12-20T03:13:09;7.18;;;2.58;;
25559;SDS011;13450;49.374;8.584;2023-12-20T03:15:34;6.95;;;2.72;;
25559;SDS011;13450;49.374;8.584;2023-12-20T03:17:59;5.35;;;2.17;;
25559;SDS011;13450;49.374;8.584;2023-12-20T03:20:25;4.85;;;2.25;;
25559;SDS011;13450;49.374;8.584;2023-12-20T03:22:53;5.78;;;2.33;;
25559;SDS011;13450;49.374;8.584;2023-12-20T03:25:20;5.18;;;2.20;;
25559;SDS011;13450;49.374;8.584;2023-12-20T03:27:45;4.90;;;2.17;;
25559;SDS011;13450;49.374;8.584;2023-12-20T03:30:13;4.57;;;1.92;;
25559;SDS011;13450;49.374;8.584;2023-12-20T03:32:39;6.00;;;2.10;;
25559;SDS011;13450;49.374;8.584;2023-12-20T03:35:04;6.65;;;2.10;;
25559;SDS011;13450;49.374;8.584;2023-12-20T03:37:32;6.15;;;2.10;;
25559;SDS011;13450;49.374;8.584;2023-12-20T03:39:58;5.80;;;2.38;;
25559;SDS011;13450;49.374;8.584;2023-12-20T03:42:23;5.82;;;2.00;;
25559;SDS011;13450;49.374;8.584;2023-12-20T03:44:48;4.95;;;2.08;;
25559;SDS011;13450;49.374;8.584;2023-12-20T03:47:16;5.93;;;2.13;;
25559;SDS011;13450;49.374;8.584;2023-12-20T03:49:41;6.70;;;2.50;;
25559;SDS011;13450;49.374;8.584;2023-12-20T03:52:07;5.90;;;2.45;;
25559;SDS011;13450;49.374;8.584;2023-12-20T03:54:32;5.88;;;2.20;;
25559;SDS011;13450;49.374;8.584;2023-12-20T03:56:58;4.70;;;2.05;;
25559;SDS011;13450;49.374;8.584;2023-12-20T03:59:25;4.07;;;1.73;;
25559;SDS011;13450;49.374;8.584;2023-12-20T04:01:51;4.68;;;2.00;;
25559;SDS011;13450;49.374;8.584;2023-12-20T04:04:16;5.10;;;2.20;;
25559;SDS011;13450;49.374;8.584;2023-12-20T04:06:45;5.28;;;2.08;;
25559;SDS011;13450;49.374;8.584;2023-12-20T04:09:11;6.20;;;2.50;;
25559;SDS011;13450;49.374;8.584;2023-12-20T04:11:37;5.97;;;2.53;;
25559;SDS011;13450;49.374;8.584;2023-12-20T04:14:02;6.03;;;2.47;;
25559;SDS011;13450;49.374;8.584;2023-12-20T04:16:27;5.75;;;2.88;;
25559;SDS011;13450;49.374;8.584;2023-12-20T04:18:55;6.88;;;3.40;;
25559;SDS011;13450;49.374;8.584;2023-12-20T04:21:21;7.00;;;3.15;;
25559;SDS011;13450;49.374;8.584;2023-12-20T04:23:46;4.95;;;2.58;;
25559;SDS011;13450;49.374;8.584;2023-12-20T04:26:11;7.22;;;2.83;;
25559;SDS011;13450;49.374;8.584;2023-12-20T04:28:36;5.38;;;2.55;;
25559;SDS011;13450;49.374;8.584;2023-12-20T04:31:02;7.18;;;3.03;;
25559;SDS011;13450;49.374;8.584;2023-12-20T04:33:27;6.75;;;2.80;;
25559;SDS011;13450;49.374;8.584;2023-12-20T04:35:52;6.18;;;2.78;;
25559;SDS011;13450;49.374;8.584;2023-12-20T04:38:18;8.02;;;2.97;;
25559;SDS011;13450;49.374;8.584;2023-12-20T04:40:43;6.80;;;3.13;;
25559;SDS011;13450;49.374;8.584;2023-12-20T04:43:09;6.30;;;2.83;;
25559;SDS011;13450;49.374;8.584;2023-12-20T04:45:34;5.57;;;2.70;;
25559;SDS011;13450;49.374;8.584;2023-12-20T04:48:01;8.05;;;2.92;;
25559;SDS011;13450;49.374;8.584;2023-12-20T04:50:27;6.85;;;2.58;;
25559;SDS011;13450;49.374;8.584;2023-12-20T04:52:52;7.75;;;3.28;;
25559;SDS011;13450;49.374;8.584;2023-12-20T04:55:17;6.88;;;2.90;;
25559;SDS011;13450;49.374;8.584;2023-12-20T04:57:43;5.50;;;2.80;;
25559;SDS011;13450;49.374;8.584;2023-12-20T05:00:11;7.47;;;3.15;;
25559;SDS011;13450;49.374;8.584;2023-12-20T05:02:37;5.75;;;2.78;;
25559;SDS011;13450;49.374;8.584;2023-12-20T05:05:02;6.45;;;2.90;;
25559;SDS011;13450;49.374;8.584;2023-12-20T05:07:28;5.95;;;2.38;;
25559;SDS011;13450;49.374;8.584;2023-12-20T05:09:53;7.45;;;3.20;;
25559;SDS011;13450;49.374;8.584;2023-12-20T05:12:18;6.30;;;3.00;;
25559;SDS011;13450;49.374;8.584;2023-12-20T05:14:44;6.57;;;2.55;;
25559;SDS011;13450;49.374;8.584;2023-12-20T05:17:09;6.53;;;2.85;;
25559;SDS011;13450;49.374;8.584;2023-12-20T05:19:36;6.72;;;2.67;;
25559;SDS011;13450;49.374;8.584;2023-12-20T05:22:01;4.82;;;2.42;;
25559;SDS011;13450;49.374;8.584;2023-12-20T05:24:27;5.80;;;2.67;;
25559;SDS011;13450;49.374;8.584;2023-12-20T05:26:52;7.82;;;3.20;;
25559;SDS011;13450;49.374;8.584;2023-12-20T05:29:20;7.18;;;2.85;;
25559;SDS011;13450;49.374;8.584;2023-12-20T05:31:48;5.90;;;2.45;;
25559;SDS011;13450;49.374;8.584;2023-12-20T05:34:13;5.60;;;2.40;;
25559;SDS011;13450;49.374;8.584;2023-12-20T05:36:38;7.18;;;3.50;;
25559;SDS011;13450;49.374;8.584;2023-12-20T05:39:04;6.95;;;2.70;;
25559;SDS011;13450;49.374;8.584;2023-12-20T05:41:32;5.32;;;2.53;;
25559;SDS011;13450;49.374;8.584;2023-12-20T05:43:57;4.65;;;2.10;;
25559;SDS011;13450;49.374;8.584;2023-12-20T05:46:25;5.63;;;2.55;;
25559;SDS011;13450;49.374;8.584;2023-12-20T05:48:51;5.65;;;2.55;;
25559;SDS011;13450;49.374;8.584;2023-12-20T05:51:17;6.05;;;2.72;;
25559;SDS011;13450;49.374;8.584;2023-12-20T05:53:43;5.70;;;2.95;;
25559;SDS011;13450;49.374;8.584;2023-12-20T05:56:09;4.15;;;1.88;;
25559;SDS011;13450;49.374;8.584;2023-12-20T05:58:34;6.72;;;2.78;;
25559;SDS011;13450;49.374;8.584;2023-12-20T06:01:00;4.85;;;2.08;;
25559;SDS011;13450;49.374;8.584;2023-12-20T06:03:25;4.35;;;2.30;;
25559;SDS011;13450;49.374;8.584;2023-12-20T06:05:53;4.05;;;2.30;;
25559;SDS011;13450;49.374;8.584;2023-12-20T06:08:20;4.95;;;2.22;;
25559;SDS011;13450;49.374;8.584;2023-12-20T06:10:46;6.18;;;2.63;;
25559;SDS011;13450;49.374;8.584;2023-12-20T06:13:11;4.03;;;1.75;;
25559;SDS011;13450;49.374;8.584;2023-12-20T06:15:38;4.30;;;1.90;;
25559;SDS011;13450;49.374;8.584;2023-12-20T06:18:03;4.18;;;1.90;;
25559;SDS011;13450;49.374;8.584;2023-12-20T06:20:29;5.63;;;1.98;;
25559;SDS011;13450;49.374;8.584;2023-12-20T06:22:54;4.50;;;1.80;;
25559;SDS011;13450;49.374;8.584;2023-12-20T06:25:20;4.07;;;1.73;;
25559;SDS011;13450;49.374;8.584;2023-12-20T06:27:45;3.08;;;1.35;;
25559;SDS011;13450;49.374;8.584;2023-12-20T06:30:10;2.75;;;1.25;;
25559;SDS011;13450;49.374;8.584;2023-12-20T06:32:36;3.38;;;1.40;;
25559;SDS011;13450;49.374;8.584;2023-12-20T06:35:02;2.90;;;1.38;;
25559;SDS011;13450;49.374;8.584;2023-12-20T06:37:29;3.20;;;1.35;;
25559;SDS011;13450;49.374;8.584;2023-12-20T06:39:55;3.30;;;1.50;;
25559;SDS011;13450;49.374;8.584;2023-12-20T06:42:23;3.28;;;1.50;;
25559;SDS011;13450;49.374;8.584;2023-12-20T06:44:48;2.55;;;1.10;;
25559;SDS011;13450;49.374;8.584;2023-12-20T06:47:18;2.30;;;1.25;;
25559;SDS011;13450;49.374;8.584;2023-12-20T06:49:43;3.85;;;1.50;;
25559;SDS011;13450;49.374;8.584;2023-12-20T06:52:11;3.85;;;1.42;;
25559;SDS011;13450;49.374;8.584;2023-12-20T06:54:37;4.15;;;1.65;;
25559;SDS011;13450;49.374;8.584;2023-12-20T06:57:02;4.70;;;1.40;;
25559;SDS011;13450;49.374;8.584;2023-12-20T06:59:29;4.50;;;2.00;;
25559;SDS011;13450;49.374;8.584;2023-12-20T07:01:54;4.35;;;1.70;;
25559;SDS011;13450;49.374;8.584;2023-12-20T07:04:20;4.40;;;1.98;;
25559;SDS011;13450;49.374;8.584;2023-12-20T07:06:47;4.53;;;1.60;;
25559;SDS011;13450;49.374;8.584;2023-12-20T07:09:13;6.80;;;2.13;;
25559;SDS011;13450;49.374;8.584;2023-12-20T07:11:39;4.03;;;1.60;;
25559;SDS011;13450;49.374;8.584;2023-12-20T07:14:04;3.63;;;1.60;;
25559;SDS011;13450;49.374;8.584;2023-12-20T07:16:32;4.75;;;2.05;;
25559;SDS011;13450;49.374;8.584;2023-12-20T07:19:00;3.40;;;1.55;;
25559;SDS011;13450;49.374;8.584;2023-12-20T07:21:25;3.28;;;1.50;;
25559;SDS011;13450;49.374;8.584;2023-12-20T07:23:50;4.38;;;1.63;;
25559;SDS011;13450;49.374;8.584;2023-12-20T07:26:16;4.70;;;2.15;;
25559;SDS011;13450;49.374;8.584;2023-12-20T07:28:42;2.97;;;1.50;;
25559;SDS011;13450;49.374;8.584;2023-12-20T07:31:07;4.38;;;1.63;;
25559;SDS011;13450;49.374;8.584;2023-12-20T07:33:33;3.58;;;1.80;;
25559;SDS011;13450;49.374;8.584;2023-12-20T07:35:59;5.35;;;1.63;;
25559;SDS011;13450;49.374;8.584;2023-12-20T07:38:24;3.53;;;1.52;;
25559;SDS011;13450;49.374;8.584;2023-12-20T07:40:50;3.83;;;1.70;;
25559;SDS011;13450;49.374;8.584;2023-12-20T07:43:15;4.82;;;1.90;;
25559;SDS011;13450;49.374;8.584;2023-12-20T07:45:40;4.38;;;2.00;;
25559;SDS011;13450;49.374;8.584;2023-12-20T07:48:06;3.10;;;1.48;;
25559;SDS011;13450;49.374;8.584;2023-12-20T07:50:32;4.82;;;1.90;;
25559;SDS011;13450;49.374;8.584;2023-12-20T07:53:00;4.93;;;1.75;;
25559;SDS011;13450;49.374;8.584;2023-12-20T07:55:26;4.28;;;1.77;;
25559;SDS011;13450;49.374;8.584;2023-12-20T07:57:52;5.22;;;1.80;;
25559;SDS011;13450;49.374;8.584;2023-12-20T08:00:17;4.63;;;1.90;;
25559;SDS011;13450;49.374;8.584;2023-12-20T08:02:43;6.35;;;2.00;;
25559;SDS011;13450;49.374;8.584;2023-12-20T08:05:08;4.40;;;2.03;;
25559;SDS011;13450;49.374;8.584;2023-12-20T08:07:34;5.07;;;2.08;;
25559;SDS011;13450;49.374;8.584;2023-12-20T08:09:59;6.35;;;2.25;;
25559;SDS011;13450;49.374;8.584;2023-12-20T08:12:24;4.15;;;1.60;;
25559;SDS011;13450;49.374;8.584;2023-12-20T08:14:52;4.43;;;1.70;;
25559;SDS011;13450;49.374;8.584;2023-12-20T08:17:18;4.32;;;1.85;;
25559;SDS011;13450;49.374;8.584;2023-12-20T08:19:45;5.95;;;1.90;;
25559;SDS011;13450;49.374;8.584;2023-12-20T08:22:11;4.57;;;1.88;;
25559;SDS011;13450;49.374;8.584;2023-12-20T08:24:38;4.53;;;1.80;;
25559;SDS011;13450;49.374;8.584;2023-12-20T08:27:04;5.18;;;1.70;;
25559;SDS011;13450;49.374;8.584;2023-12-20T08:29:29;3.35;;;1.60;;
25559;SDS011;13450;49.374;8.584;2023-12-20T08:31:57;3.55;;;1.60;;
25559;SDS011;13450;49.374;8.584;2023-12-20T08:34:25;3.03;;;1.33;;
25559;SDS011;13450;49.374;8.584;2023-12-20T08:36:51;3.63;;;1.40;;
25559;SDS011;13450;49.374;8.584;2023-12-20T08:39:21;2.92;;;1.13;;
25559;SDS011;13450;49.374;8.584;2023-12-20T08:42:05;3.72;;;1.55;;
25559;SDS011;13450;49.374;8.584;2023-12-20T08:44:30;2.83;;;1.30;;
25559;SDS011;13450;49.374;8.584;2023-12-20T08:46:55;4.13;;;1.52;;
25559;SDS011;13450;49.374;8.584;2023-12-20T08:49:22;2.72;;;1.00;;
25559;SDS011;13450;49.374;8.584;2023-12-20T08:51:49;4.05;;;1.92;;
25559;SDS011;13450;49.374;8.584;2023-12-20T08:54:15;4.22;;;1.25;;
25559;SDS011;13450;49.374;8.584;2023-12-20T08:56:46;4.25;;;1.38;;
25559;SDS011;13450;49.374;8.584;2023-12-20T08:59:14;2.53;;;1.20;;
25559;SDS011;13450;49.374;8.584;2023-12-20T09:01:39;2.83;;;1.27;;
25559;SDS011;13450;49.374;8.584;2023-12-20T09:04:04;3.95;;;1.35;;
25559;SDS011;13450;49.374;8.584;2023-12-20T09:06:31;4.72;;;1.90;;
25559;SDS011;13450;49.374;8.584;2023-12-20T09:08:56;3.53;;;1.40;;
25559;SDS011;13450;49.374;8.584;2023-12-20T09:11:21;3.45;;;1.55;;
25559;SDS011;13450;49.374;8.584;2023-12-20T09:13:47;3.17;;;1.40;;
25559;SDS011;13450;49.374;8.584;2023-12-20T09:16:12;4.00;;;1.40;;
25559;SDS011;13450;49.374;8.584;2023-12-20T09:18:38;4.82;;;1.27;;
25559;SDS011;13450;49.374;8.584;2023-12-20T09:21:04;4.60;;;1.40;;
25559;SDS011;13450;49.374;8.584;2023-12-20T09:23:29;4.43;;;1.35;;
25559;SDS011;13450;49.374;8.584;2023-12-20T09:25:54;3.90;;;1.35;;
25559;SDS011;13450;49.374;8.584;2023-12-20T09:28:22;3.60;;;1.10;;
25559;SDS011;13450;49.374;8.584;2023-12-20T09:30:47;3.00;;;1.20;;
25559;SDS011;13450;49.374;8.584;2023-12-20T09:33:14;5.22;;;1.05;;
25559;SDS011;13450;49.374;8.584;2023-12-20T09:35:39;2.88;;;1.13;;
25559;SDS011;13450;49.374;8.584;2023-12-20T09:38:05;3.42;;;1.20;;
25559;SDS011;13450;49.374;8.584;2023-12-20T09:40:30;5.20;;;1.10;;
25559;SDS011;13450;49.374;8.584;2023-12-20T09:42:57;3.78;;;1.10;;
25559;SDS011;13450;49.374;8.584;2023-12-20T09:45:28;4.18;;;1.20;;
25559;SDS011;13450;49.374;8.584;2023-12-20T09:47:55;3.88;;;1.30;;
25559;SDS011;13450;49.374;8.584;2023-12-20T09:50:22;2.80;;;1.00;;
25559;SDS011;13450;49.374;8.584;2023-12-20T09:52:52;6.00;;;1.38;;
25559;SDS011;13450;49.374;8.584;2023-12-20T09:55:18;3.83;;;1.40;;
25559;SDS011;13450;49.374;8.584;2023-12-20T09:57:45;5.45;;;1.50;;
25559;SDS011;13450;49.374;8.584;2023-12-20T10:00:14;4.45;;;1.40;;
25559;SDS011;13450;49.374;8.584;2023-12-20T10:02:42;7.07;;;1.60;;
25559;SDS011;13450;49.374;8.584;2023-12-20T10:05:15;2.83;;;1.20;;
25559;SDS011;13450;49.374;8.584;2023-12-20T10:07:45;3.97;;;1.10;;
25559;SDS011;13450;49.374;8.584;2023-12-20T10:10:11;4.80;;;1.30;;
25559;SDS011;13450;49.374;8.584;2023-12-20T10:12:38;2.78;;;1.10;;
25559;SDS011;13450;49.374;8.584;2023-12-20T10:15:23;3.85;;;0.98;;
25559;SDS011;13450;49.374;8.584;2023-12-20T10:17:49;5.50;;;1.00;;
25559;SDS011;13450;49.374;8.584;2023-12-20T10:20:14;4.03;;;1.00;;
25559;SDS011;13450;49.374;8.584;2023-12-20T10:22:39;5.90;;;0.88;;
25559;SDS011;13450;49.374;8.584;2023-12-20T10:25:05;5.65;;;1.27;;
25559;SDS011;13450;49.374;8.584;2023-12-20T10:27:31;6.70;;;1.27;;
25559;SDS011;13450;49.374;8.584;2023-12-20T10:29:59;2.55;;;0.90;;
25559;SDS011;13450;49.374;8.584;2023-12-20T10:32:27;2.55;;;0.88;;
25559;SDS011;13450;49.374;8.584;2023-12-20T10:34:55;4.60;;;1.08;;
25559;SDS011;13450;49.374;8.584;2023-12-20T10:37:24;3.00;;;1.00;;
25559;SDS011;13450;49.374;8.584;2023-12-20T10:39:52;4.95;;;1.50;;
25559;SDS011;13450;49.374;8.584;2023-12-20T10:42:22;3.05;;;0.90;;
25559;SDS011;13450;49.374;8.584;2023-12-20T10:44:51;5.05;;;1.20;;
25559;SDS011;13450;49.374;8.584;2023-12-20T10:47:16;3.67;;;1.00;;
25559;SDS011;13450;49.374;8.584;2023-12-20T10:49:42;6.45;;;1.20;;
25559;SDS011;13450;49.374;8.584;2023-12-20T10:52:09;3.22;;;1.10;;
25559;SDS011;13450;49.374;8.584;2023-12-20T10:57:05;4.47;;;1.42;;
25559;SDS011;13450;49.374;8.584;2023-12-20T10:59:33;4.57;;;1.15;;
25559;SDS011;13450;49.374;8.584;2023-12-20T11:02:01;3.90;;;1.23;;
25559;SDS011;13450;49.374;8.584;2023-12-20T11:04:33;6.35;;;1.73;;
25559;SDS011;13450;49.374;8.584;2023-12-20T11:07:08;4.10;;;1.25;;
25559;SDS011;13450;49.374;8.584;2023-12-20T11:09:46;3.90;;;1.10;;
25559;SDS011;13450;49.374;8.584;2023-12-20T11:12:43;4.40;;;1.33;;
25559;SDS011;13450;49.374;8.584;2023-12-20T11:15:10;8.15;;;1.42;;
25559;SDS011;13450;49.374;8.584;2023-12-20T11:17:36;4.65;;;1.20;;
25559;SDS011;13450;49.374;8.584;2023-12-20T11:20:04;5.07;;;1.60;;
25559;SDS011;13450;49.374;8.584;2023-12-20T11:22:31;5.50;;;1.40;;
25559;SDS011;13450;49.374;8.584;2023-12-20T11:27:30;4.97;;;1.85;;
25559;SDS011;13450;49.374;8.584;2023-12-20T11:29:56;5.18;;;1.45;;
25559;SDS011;13450;49.374;8.584;2023-12-20T11:34:54;8.02;;;1.95;;
25559;SDS011;13450;49.374;8.584;2023-12-20T11:37:21;6.00;;;1.65;;
25559;SDS011;13450;49.374;8.584;2023-12-20T11:39:56;6.88;;;1.85;;
25559;SDS011;13450;49.374;8.584;2023-12-20T11:42:27;3.35;;;1.60;;
25559;SDS011;13450;49.374;8.584;2023-12-20T11:44:57;4.10;;;1.63;;
25559;SDS011;13450;49.374;8.584;2023-12-20T11:47:22;6.35;;;1.55;;
25559;SDS011;13450;49.374;8.584;2023-12-20T11:49:48;7.63;;;1.70;;
25559;SDS011;13450;49.374;8.584;2023-12-20T11:52:14;3.90;;;1.40;;
25559;SDS011;13450;49.374;8.584;2023-12-20T11:54:39;5.35;;;1.58;;
25559;SDS011;13450;49.374;8.584;2023-12-20T11:57:04;5.40;;;1.55;;
25559;SDS011;13450;49.374;8.584;2023-12-20T11:59:32;5.10;;;1.50;;
25559;SDS011;13450;49.374;8.584;2023-12-20T12:02:01;4.33;;;1.40;;
25559;SDS011;13450;49.374;8.584;2023-12-20T12:04:26;6.65;;;1.60;;
25559;SDS011;13450;49.374;8.584;2023-12-20T12:06:53;3.53;;;1.30;;
25559;SDS011;13450;49.374;8.584;2023-12-20T12:09:19;7.80;;;1.50;;
25559;SDS011;13450;49.374;8.584;2023-12-20T12:11:44;3.90;;;1.45;;
25559;SDS011;13450;49.374;8.584;2023-12-20T12:14:09;3.67;;;1.25;;
25559;SDS011;13450;49.374;8.584;2023-12-20T12:16:35;5.05;;;1.80;;
25559;SDS011;13450;49.374;8.584;2023-12-20T12:19:01;4.97;;;1.48;;
25559;SDS011;13450;49.374;8.584;2023-12-20T12:21:26;6.05;;;1.88;;
25559;SDS011;13450;49.374;8.584;2023-12-20T12:23:51;4.63;;;1.50;;
25559;SDS011;13450;49.374;8.584;2023-12-20T12:26:18;3.92;;;1.50;;
25559;SDS011;13450;49.374;8.584;2023-12-20T12:28:49;6.72;;;1.60;;
25559;SDS011;13450;49.374;8.584;2023-12-20T12:31:15;8.75;;;2.63;;
25559;SDS011;13450;49.374;8.584;2023-12-20T12:33:41;7.57;;;1.90;;
25559;SDS011;13450;49.374;8.584;2023-12-20T12:36:07;7.38;;;1.67;;
25559;SDS011;13450;49.374;8.584;2023-12-20T12:38:34;7.22;;;1.98;;
25559;SDS011;13450;49.374;8.584;2023-12-20T12:41:02;5.93;;;1.65;;
25559;SDS011;13450;49.374;8.584;2023-12-20T12:43:27;3.00;;;1.30;;
25559;SDS011;13450;49.374;8.584;2023-12-20T12:45:53;3.88;;;1.33;;
25559;SDS011;13450;49.374;8.584;2023-12-20T12:48:18;3.58;;;1.63;;
25559;SDS011;13450;49.374;8.584;2023-12-20T12:50:46;8.60;;;1.98;;
25559;SDS011;13450;49.374;8.584;2023-12-20T12:53:11;4.05;;;1.40;;
25559;SDS011;13450;49.374;8.584;2023-12-20T12:55:36;9.50;;;1.60;;
25559;SDS011;13450;49.374;8.584;2023-12-20T12:58:02;4.38;;;1.35;;
25559;SDS011;13450;49.374;8.584;2023-12-20T13:00:27;6.25;;;1.75;;
25559;SDS011;13450;49.374;8.584;2023-12-20T13:02:53;2.97;;;1.40;;
25559;SDS011;13450;49.374;8.584;2023-12-20T13:05:18;3.53;;;1.55;;
25559;SDS011;13450;49.374;8.584;2023-12-20T13:07:43;4.50;;;1.77;;
25559;SDS011;13450;49.374;8.584;2023-12-20T13:10:11;7.53;;;2.10;;
25559;SDS011;13450;49.374;8.584;2023-12-20T13:12:36;7.47;;;1.60;;
25559;SDS011;13450;49.374;8.584;2023-12-20T13:15:02;5.35;;;1.40;;
25559;SDS011;13450;49.374;8.584;2023-12-20T13:17:29;6.13;;;1.75;;
25559;SDS011;13450;49.374;8.584;2023-12-20T13:19:54;3.75;;;1.70;;
25559;SDS011;13450;49.374;8.584;2023-12-20T13:22:19;4.72;;;1.67;;
25559;SDS011;13450;49.374;8.584;2023-12-20T13:24:45;4.75;;;1.40;;
25559;SDS011;13450;49.374;8.584;2023-12-20T13:27:10;4.28;;;1.48;;
25559;SDS011;13450;49.374;8.584;2023-12-20T13:29:38;7.20;;;1.55;;
25559;SDS011;13450;49.374;8.584;2023-12-20T13:32:03;9.10;;;2.22;;
25559;SDS011;13450;49.374;8.584;2023-12-20T13:34:29;4.68;;;1.80;;
25559;SDS011;13450;49.374;8.584;2023-12-20T13:36:57;6.30;;;1.80;;
25559;SDS011;13450;49.374;8.584;2023-12-20T13:39:25;6.13;;;2.05;;
25559;SDS011;13450;49.374;8.584;2023-12-20T13:41:50;5.72;;;1.65;;
25559;SDS011;13450;49.374;8.584;2023-12-20T13:44:15;4.53;;;1.50;;
25559;SDS011;13450;49.374;8.584;2023-12-20T13:46:41;4.45;;;1.40;;
25559;SDS011;13450;49.374;8.584;2023-12-20T13:49:06;8.18;;;1.60;;
25559;SDS011;13450;49.374;8.584;2023-12-20T13:51:32;7.60;;;1.40;;
25559;SDS011;13450;49.374;8.584;2023-12-20T13:53:57;4.25;;;1.40;;
25559;SDS011;13450;49.374;8.584;2023-12-20T13:56:22;5.63;;;1.95;;
25559;SDS011;13450;49.374;8.584;2023-12-20T13:58:48;3.10;;;1.33;;
25559;SDS011;13450;49.374;8.584;2023-12-20T14:01:13;4.47;;;1.40;;
25559;SDS011;13450;49.374;8.584;2023-12-20T14:03:41;4.70;;;1.60;;
25559;SDS011;13450;49.374;8.584;2023-12-20T14:06:06;5.30;;;1.67;;
25559;SDS011;13450;49.374;8.584;2023-12-20T14:08:32;3.97;;;1.45;;
25559;SDS011;13450;49.374;8.584;2023-12-20T14:10:57;5.50;;;2.30;;
25559;SDS011;13450;49.374;8.584;2023-12-20T14:13:22;4.18;;;1.80;;
25559;SDS011;13450;49.374;8.584;2023-12-20T14:15:48;4.10;;;1.50;;
25559;SDS011;13450;49.374;8.584;2023-12-20T14:18:14;5.25;;;1.40;;
25559;SDS011;13450;49.374;8.584;2023-12-20T14:20:40;4.57;;;1.63;;
25559;SDS011;13450;49.374;8.584;2023-12-20T14:23:07;9.90;;;2.90;;
25559;SDS011;13450;49.374;8.584;2023-12-20T14:25:32;4.18;;;1.30;;
25559;SDS011;13450;49.374;8.584;2023-12-20T14:27:58;6.60;;;1.45;;
25559;SDS011;13450;49.374;8.584;2023-12-20T14:30:24;6.22;;;1.75;;
25559;SDS011;13450;49.374;8.584;2023-12-20T14:32:50;5.53;;;1.58;;
25559;SDS011;13450;49.374;8.584;2023-12-20T14:35:15;5.00;;;1.40;;
25559;SDS011;13450;49.374;8.584;2023-12-20T14:37:41;5.35;;;1.40;;
25559;SDS011;13450;49.374;8.584;2023-12-20T14:40:06;3.63;;;1.20;;
25559;SDS011;13450;49.374;8.584;2023-12-20T14:42:36;7.50;;;1.30;;
25559;SDS011;13450;49.374;8.584;2023-12-20T14:45:01;3.00;;;1.20;;
25559;SDS011;13450;49.374;8.584;2023-12-20T14:47:26;5.63;;;1.48;;
25559;SDS011;13450;49.374;8.584;2023-12-20T14:49:54;5.65;;;1.40;;
25559;SDS011;13450;49.374;8.584;2023-12-20T14:52:22;12.05;;;4.13;;